createdAt,value
2019-02-27T00:01:22.009Z,5.22
2019-02-27T00:03:49.105Z,4.82
2019-02-27T00:06:18.419Z,4.58
2019-02-27T00:08:46.087Z,4.37
2019-02-27T00:11:14.089Z,4.02
2019-02-27T00:13:41.048Z,3.86
2019-02-27T00:16:11.128Z,3.93
2019-02-27T00:18:38.687Z,3.91
2019-02-27T00:21:10.222Z,3.92
2019-02-27T00:23:34.625Z,3.87
2019-02-27T00:26:01.845Z,3.90
2019-02-27T00:28:28.832Z,4.12
2019-02-27T00:30:56.141Z,4.41
2019-02-27T00:33:26.091Z,4.42
2019-02-27T00:35:52.007Z,4.09
2019-02-27T00:38:19.363Z,3.92
2019-02-27T00:40:46.375Z,3.77
2019-02-27T00:43:13.326Z,3.71
2019-02-27T00:45:43.008Z,4.01
2019-02-27T00:48:10.044Z,4.47
2019-02-27T00:50:39.196Z,4.26
2019-02-27T00:53:07.943Z,3.62
2019-02-27T00:55:38.550Z,3.67
2019-02-27T00:58:03.790Z,3.99
2019-02-27T01:00:30.731Z,4.35
2019-02-27T01:03:07.403Z,4.56
2019-02-27T01:05:34.451Z,4.53
2019-02-27T01:08:02.287Z,4.22
2019-02-27T01:10:29.365Z,3.92
2019-02-27T01:12:58.092Z,3.69
2019-02-27T01:15:25.211Z,3.72
2019-02-27T01:17:52.180Z,3.92
2019-02-27T01:20:19.115Z,3.97
2019-02-27T01:22:47.525Z,3.85
2019-02-27T01:25:15.225Z,4.00
2019-02-27T01:27:42.201Z,3.84
2019-02-27T01:30:10.586Z,3.78
2019-02-27T01:32:37.544Z,3.94
2019-02-27T01:35:05.129Z,4.14
2019-02-27T01:37:32.476Z,3.59
2019-02-27T01:39:59.446Z,3.38
2019-02-27T01:42:26.420Z,3.05
2019-02-27T01:44:53.865Z,3.28
2019-02-27T01:47:21.252Z,3.71
2019-02-27T01:49:49.148Z,3.89
2019-02-27T01:52:18.344Z,3.99
2019-02-27T01:54:46.089Z,4.05
2019-02-27T01:57:14.210Z,4.07
2019-02-27T01:59:41.561Z,3.95
2019-02-27T02:02:08.546Z,3.80
2019-02-27T02:04:35.488Z,3.68
2019-02-27T02:07:04.032Z,3.60
2019-02-27T02:09:36.314Z,3.60
2019-02-27T02:12:18.615Z,3.81
2019-02-27T02:14:54.358Z,3.78
2019-02-27T02:17:55.265Z,3.73
2019-02-27T02:21:01.731Z,3.61
2019-02-27T02:23:50.092Z,3.68
2019-02-27T02:26:40.856Z,3.84
2019-02-27T02:29:53.172Z,3.84
2019-02-27T02:33:00.584Z,3.73
2019-02-27T02:36:00.026Z,3.68
2019-02-27T02:38:59.247Z,3.60
2019-02-27T02:42:15.236Z,3.52
2019-02-27T02:45:08.256Z,3.27
2019-02-27T02:48:07.488Z,3.33
2019-02-27T02:51:28.660Z,3.28
2019-02-27T02:54:16.966Z,3.29
2019-02-27T02:57:04.961Z,3.18
2019-02-27T02:59:59.870Z,3.26
2019-02-27T03:02:57.567Z,3.41
2019-02-27T03:06:10.749Z,3.19
2019-02-27T03:09:03.447Z,2.58
2019-02-27T03:12:08.225Z,2.90
2019-02-27T03:15:35.411Z,3.14
2019-02-27T03:18:43.843Z,3.07
2019-02-27T03:21:45.540Z,3.06
2019-02-27T03:24:42.257Z,3.22
2019-02-27T03:27:44.791Z,3.26
2019-02-27T03:30:34.141Z,3.51
2019-02-27T03:33:50.957Z,2.67
2019-02-27T03:36:59.533Z,2.32
2019-02-27T03:40:11.830Z,1.91
2019-02-27T03:43:27.205Z,1.92
2019-02-27T03:46:46.170Z,1.62
2019-02-27T03:49:27.902Z,2.12
2019-02-27T03:52:42.130Z,2.60
2019-02-27T03:55:40.619Z,2.63
2019-02-27T03:58:35.853Z,2.61
2019-02-27T04:02:05.879Z,2.60
2019-02-27T04:04:40.098Z,2.69
2019-02-27T04:07:34.577Z,2.89
2019-02-27T04:10:01.662Z,2.95
2019-02-27T04:12:28.777Z,3.08
2019-02-27T04:14:55.814Z,3.08
2019-02-27T04:17:28.306Z,2.97
2019-02-27T04:19:56.552Z,2.64
2019-02-27T04:22:23.921Z,2.55
2019-02-27T04:24:56.420Z,2.49
2019-02-27T04:27:21.318Z,2.19
2019-02-27T04:29:48.559Z,1.59
2019-02-27T04:32:15.634Z,1.46
2019-02-27T04:34:45.124Z,1.63
2019-02-27T04:37:12.181Z,1.97
2019-02-27T04:39:39.210Z,2.34
2019-02-27T04:42:07.702Z,2.57
2019-02-27T04:44:35.923Z,2.73
2019-02-27T04:47:03.717Z,2.55
2019-02-27T04:49:34.816Z,2.05
2019-02-27T04:52:05.598Z,1.82
2019-02-27T04:54:32.658Z,1.74
2019-02-27T04:57:00.244Z,1.83
2019-02-27T04:59:27.335Z,1.85
2019-02-27T05:01:54.420Z,1.42
2019-02-27T05:04:21.456Z,1.07
2019-02-27T05:06:49.759Z,0.87
2019-02-27T05:09:16.785Z,0.96
2019-02-27T05:11:48.340Z,1.16
2019-02-27T05:14:14.211Z,1.12
2019-02-27T05:16:41.234Z,1.46
2019-02-27T05:19:08.284Z,1.58
2019-02-27T05:21:35.438Z,1.80
2019-02-27T05:24:05.105Z,2.08
2019-02-27T05:26:31.780Z,2.52
2019-02-27T05:28:58.808Z,2.72
2019-02-27T05:31:25.844Z,2.78
2019-02-27T05:33:52.905Z,2.86
2019-02-27T05:36:19.952Z,2.81
2019-02-27T05:38:47.014Z,2.00
2019-02-27T05:41:14.327Z,1.24
2019-02-27T05:43:41.777Z,1.00
2019-02-27T05:46:09.106Z,1.03
2019-02-27T05:48:36.140Z,0.81
2019-02-27T05:51:05.005Z,0.85
2019-02-27T05:53:34.201Z,0.58
2019-02-27T05:56:01.402Z,0.41
2019-02-27T05:58:29.573Z,0.29
2019-02-27T06:00:57.766Z,0.24
2019-02-27T06:03:25.574Z,0.35
2019-02-27T06:05:52.627Z,0.44
2019-02-27T06:08:19.727Z,0.61
2019-02-27T06:10:46.812Z,0.64
2019-02-27T06:13:14.180Z,0.64
2019-02-27T06:15:41.772Z,0.50
2019-02-27T06:18:08.860Z,0.46
2019-02-27T06:20:36.049Z,0.63
2019-02-27T06:23:07.331Z,0.78
2019-02-27T06:25:34.449Z,1.20
2019-02-27T06:28:01.483Z,1.76
2019-02-27T06:30:30.599Z,2.12
2019-02-27T06:32:57.518Z,2.19
2019-02-27T06:35:24.595Z,2.36
2019-02-27T06:37:51.640Z,2.39
2019-02-27T06:40:18.775Z,2.37
2019-02-27T06:42:46.128Z,2.36
2019-02-27T06:45:13.918Z,2.31
2019-02-27T06:47:41.017Z,2.33
2019-02-27T06:50:09.796Z,2.18
2019-02-27T06:52:36.868Z,1.58
2019-02-27T06:55:05.173Z,1.29
2019-02-27T06:57:35.910Z,1.22
2019-02-27T07:00:05.287Z,1.37
2019-02-27T07:02:32.639Z,1.39
2019-02-27T07:04:59.669Z,1.57
2019-02-27T07:07:28.796Z,1.94
2019-02-27T07:09:56.093Z,2.30
2019-02-27T07:12:23.255Z,3.20
2019-02-27T07:14:52.370Z,3.43
2019-02-27T07:17:19.624Z,3.62
2019-02-27T07:19:47.436Z,4.24
2019-02-27T07:22:15.691Z,5.44
2019-02-27T07:24:43.427Z,6.48
2019-02-27T07:27:10.488Z,7.26
2019-02-27T07:29:37.561Z,8.10
2019-02-27T07:32:04.629Z,8.97
2019-02-27T07:34:31.670Z,9.74
2019-02-27T07:36:58.742Z,10.19
2019-02-27T07:39:26.462Z,10.23
2019-02-27T07:41:53.511Z,10.32
2019-02-27T07:44:22.365Z,10.61
2019-02-27T07:46:58.094Z,11.14
2019-02-27T07:49:35.915Z,11.61
2019-02-27T07:52:08.492Z,11.80
2019-02-27T07:54:35.576Z,10.97
2019-02-27T07:57:02.604Z,10.40
2019-02-27T07:59:29.773Z,10.08
2019-02-27T08:01:56.866Z,10.27
2019-02-27T08:04:24.019Z,10.65
2019-02-27T08:06:51.580Z,11.04
2019-02-27T08:09:18.688Z,11.57
2019-02-27T08:11:47.960Z,12.50
2019-02-27T08:14:15.150Z,12.99
2019-02-27T08:16:42.244Z,12.36
2019-02-27T08:19:12.234Z,12.10
2019-02-27T08:21:43.776Z,12.40
2019-02-27T08:24:10.877Z,12.93
2019-02-27T08:26:37.943Z,13.16
2019-02-27T08:29:05.145Z,13.17
2019-02-27T08:31:33.726Z,13.70
2019-02-27T08:34:04.623Z,13.45
2019-02-27T08:36:36.139Z,10.77
2019-02-27T08:39:05.406Z,11.49
2019-02-27T08:41:32.970Z,11.95
2019-02-27T08:44:00.546Z,10.20
2019-02-27T08:46:27.683Z,10.05
2019-02-27T08:48:54.808Z,11.25
2019-02-27T08:51:21.963Z,12.16
2019-02-27T08:53:49.217Z,12.81
2019-02-27T08:56:16.277Z,13.19
2019-02-27T08:58:43.364Z,12.26
2019-02-27T09:01:11.232Z,13.33
2019-02-27T09:03:38.807Z,13.81
2019-02-27T09:06:05.919Z,14.62
2019-02-27T09:08:33.203Z,15.11
2019-02-27T09:11:05.574Z,15.73
2019-02-27T09:13:29.608Z,15.48
2019-02-27T09:15:58.441Z,14.61
2019-02-27T09:18:25.483Z,15.66
2019-02-27T09:20:53.542Z,15.54
2019-02-27T09:23:21.603Z,15.95
2019-02-27T09:25:56.997Z,15.47
2019-02-27T09:28:18.189Z,15.43
2019-02-27T09:30:45.230Z,15.65
2019-02-27T09:33:12.383Z,16.57
2019-02-27T09:35:40.569Z,17.53
2019-02-27T09:38:08.709Z,18.78
2019-02-27T09:40:38.849Z,19.97
2019-02-27T09:43:06.312Z,20.71
2019-02-27T09:45:34.816Z,21.63
2019-02-27T09:48:02.584Z,22.63
2019-02-27T09:50:32.556Z,23.27
2019-02-27T09:53:01.072Z,24.11
2019-02-27T09:55:29.099Z,23.64
2019-02-27T09:57:56.224Z,22.23
2019-02-27T10:00:33.272Z,21.71
2019-02-27T10:03:00.553Z,22.26
2019-02-27T10:05:28.111Z,22.22
2019-02-27T10:07:55.133Z,22.85
2019-02-27T10:10:22.785Z,20.15
2019-02-27T10:12:49.966Z,22.57
2019-02-27T10:15:18.882Z,25.06
2019-02-27T10:17:46.480Z,26.65
2019-02-27T10:20:13.495Z,28.60
2019-02-27T10:22:40.589Z,29.84
2019-02-27T10:25:08.816Z,30.66
2019-02-27T10:27:41.651Z,27.78
2019-02-27T10:30:11.757Z,23.62
2019-02-27T10:32:39.089Z,24.18
2019-02-27T10:35:06.601Z,27.78
2019-02-27T10:37:33.689Z,30.15
2019-02-27T10:40:00.826Z,31.56
2019-02-27T10:42:29.235Z,33.38
2019-02-27T10:44:58.846Z,35.10
2019-02-27T10:47:28.739Z,35.50
2019-02-27T10:50:01.760Z,36.07
2019-02-27T10:52:31.411Z,36.69
2019-02-27T10:54:58.640Z,35.95
2019-02-27T10:57:31.457Z,36.84
2019-02-27T10:59:57.939Z,36.24
2019-02-27T11:02:25.339Z,37.27
2019-02-27T11:04:57.123Z,38.34
2019-02-27T11:07:24.457Z,38.39
2019-02-27T11:09:51.793Z,39.34
2019-02-27T11:12:19.083Z,39.20
2019-02-27T11:14:46.160Z,36.54
2019-02-27T11:17:13.655Z,30.34
2019-02-27T11:19:40.807Z,30.50
2019-02-27T11:22:07.993Z,29.67
2019-02-27T11:24:35.025Z,31.61
2019-02-27T11:27:06.198Z,34.84
2019-02-27T11:29:32.677Z,36.16
2019-02-27T11:32:00.098Z,38.34
2019-02-27T11:34:27.226Z,33.81
2019-02-27T11:36:54.391Z,32.19
2019-02-27T11:39:21.438Z,32.31
2019-02-27T11:41:49.134Z,30.43
2019-02-27T11:44:16.414Z,29.49
2019-02-27T11:46:43.778Z,31.50
2019-02-27T11:49:10.913Z,32.63
2019-02-27T11:51:38.084Z,34.99
2019-02-27T11:54:08.310Z,36.70
2019-02-27T11:56:36.119Z,35.99
2019-02-27T11:59:03.171Z,33.91
2019-02-27T12:01:32.147Z,35.77
2019-02-27T12:03:59.233Z,36.90
2019-02-27T12:06:26.746Z,38.86
2019-02-27T12:08:53.867Z,39.25
2019-02-27T12:11:20.920Z,33.31
2019-02-27T12:13:48.059Z,32.91
2019-02-27T12:16:18.353Z,33.64
2019-02-27T12:18:46.895Z,36.31
2019-02-27T12:21:14.748Z,35.77
2019-02-27T12:23:44.225Z,35.71
2019-02-27T12:26:11.950Z,37.78
2019-02-27T12:28:39.614Z,32.54
2019-02-27T12:31:10.937Z,29.81
2019-02-27T12:33:39.435Z,34.61
2019-02-27T12:36:08.963Z,36.67
2019-02-27T12:38:36.167Z,36.21
2019-02-27T12:41:05.380Z,29.05
2019-02-27T12:43:33.549Z,31.34
2019-02-27T12:46:01.051Z,34.74
2019-02-27T12:48:30.372Z,38.16
2019-02-27T12:50:57.447Z,41.33
2019-02-27T12:53:24.516Z,39.03
2019-02-27T12:55:51.605Z,40.84
2019-02-27T12:58:25.288Z,42.51
2019-02-27T13:00:52.583Z,34.93
2019-02-27T13:03:25.186Z,36.38
2019-02-27T13:05:54.323Z,39.61
2019-02-27T13:08:21.446Z,40.20
2019-02-27T13:10:48.756Z,41.14
2019-02-27T13:13:16.246Z,42.64
2019-02-27T13:15:43.288Z,44.36
2019-02-27T13:18:10.355Z,44.35
2019-02-27T13:20:37.499Z,43.92
2019-02-27T13:23:05.459Z,43.94
2019-02-27T13:25:33.068Z,43.43
2019-02-27T13:28:05.170Z,43.16
2019-02-27T13:30:32.269Z,43.64
2019-02-27T13:33:01.141Z,44.45
2019-02-27T13:35:28.946Z,45.16
2019-02-27T13:37:56.239Z,45.40
2019-02-27T13:40:25.197Z,44.14
2019-02-27T13:42:53.687Z,43.66
2019-02-27T13:45:23.991Z,43.23
2019-02-27T13:47:56.217Z,43.86
2019-02-27T13:50:29.053Z,43.85
2019-02-27T13:53:07.901Z,44.86
2019-02-27T13:55:37.765Z,45.69
2019-02-27T13:58:04.948Z,45.14
2019-02-27T14:00:32.120Z,44.94
2019-02-27T14:02:59.286Z,44.13
2019-02-27T14:05:26.769Z,43.79
2019-02-27T14:07:57.110Z,43.04
2019-02-27T14:10:27.280Z,41.14
2019-02-27T14:12:54.375Z,39.31
2019-02-27T14:15:26.939Z,41.73
2019-02-27T14:17:52.536Z,42.93
2019-02-27T14:20:19.936Z,43.89
2019-02-27T14:22:48.934Z,43.55
2019-02-27T14:25:18.608Z,43.67
2019-02-27T14:27:47.442Z,43.86
2019-02-27T14:30:23.228Z,44.47
2019-02-27T14:32:52.436Z,43.20
2019-02-27T14:35:21.331Z,42.53
2019-02-27T14:37:50.151Z,43.28
2019-02-27T14:40:19.238Z,44.19
2019-02-27T14:42:48.170Z,38.27
2019-02-27T14:45:16.878Z,40.12
2019-02-27T14:47:43.966Z,41.03
2019-02-27T14:50:13.497Z,39.57
2019-02-27T14:52:40.879Z,40.37
2019-02-27T14:55:09.304Z,37.26
2019-02-27T14:57:36.710Z,36.25
2019-02-27T15:00:08.622Z,30.26
2019-02-27T15:02:36.020Z,28.08
2019-02-27T15:05:08.412Z,27.82
2019-02-27T15:07:35.042Z,31.59
2019-02-27T15:10:03.077Z,33.11
2019-02-27T15:12:33.108Z,29.97
2019-02-27T15:15:00.568Z,32.37
2019-02-27T15:17:27.624Z,32.90
2019-02-27T15:19:54.696Z,33.28
2019-02-27T15:22:22.382Z,34.04
2019-02-27T15:24:50.789Z,35.11
2019-02-27T15:27:19.570Z,36.12
2019-02-27T15:29:47.316Z,35.99
2019-02-27T15:32:14.353Z,35.23
2019-02-27T15:34:46.003Z,35.76
2019-02-27T15:37:14.538Z,34.88
2019-02-27T15:39:41.897Z,34.40
2019-02-27T15:42:09.856Z,35.64
2019-02-27T15:44:37.491Z,36.88
2019-02-27T15:47:04.676Z,37.72
2019-02-27T15:49:33.082Z,36.41
2019-02-27T15:52:06.431Z,35.78
2019-02-27T15:54:30.544Z,34.24
2019-02-27T15:56:57.683Z,33.56
2019-02-27T15:59:25.185Z,33.32
2019-02-27T16:01:52.222Z,33.28
2019-02-27T16:04:21.111Z,32.08
2019-02-27T16:06:48.433Z,32.56
2019-02-27T16:09:22.742Z,32.79
2019-02-27T16:11:51.497Z,32.04
2019-02-27T16:14:19.477Z,31.07
2019-02-27T16:16:47.613Z,30.92
2019-02-27T16:19:14.973Z,31.23
2019-02-27T16:21:42.523Z,30.35
2019-02-27T16:24:10.249Z,28.69
2019-02-27T16:26:37.654Z,27.48
2019-02-27T16:29:11.153Z,26.90
2019-02-27T16:31:40.039Z,26.14
2019-02-27T16:34:08.577Z,25.87
2019-02-27T16:36:36.639Z,24.65
2019-02-27T16:39:07.470Z,23.42
2019-02-27T16:41:36.309Z,23.47
2019-02-27T16:44:03.663Z,23.44
2019-02-27T16:46:32.527Z,22.77
2019-02-27T16:48:59.672Z,22.35
2019-02-27T16:51:27.035Z,21.65
2019-02-27T16:53:54.357Z,20.84
2019-02-27T16:56:21.443Z,20.01
2019-02-27T16:58:48.959Z,19.06
2019-02-27T17:01:16.022Z,18.30
2019-02-27T17:03:45.060Z,17.82
2019-02-27T17:06:17.166Z,17.41
2019-02-27T17:08:41.840Z,17.06
2019-02-27T17:11:08.937Z,16.81
2019-02-27T17:13:35.995Z,16.65
2019-02-27T17:16:03.418Z,16.42
2019-02-27T17:18:30.838Z,16.20
2019-02-27T17:21:05.916Z,16.25
2019-02-27T17:23:49.218Z,16.21
2019-02-27T17:26:21.809Z,16.12
2019-02-27T17:28:51.609Z,15.95
2019-02-27T17:31:17.810Z,15.68
2019-02-27T17:33:45.426Z,15.28
2019-02-27T17:36:12.519Z,15.14
2019-02-27T17:38:39.627Z,14.94
2019-02-27T17:41:08.934Z,14.76
2019-02-27T17:43:35.707Z,14.72
2019-02-27T17:46:04.049Z,14.62
2019-02-27T17:48:31.724Z,14.54
2019-02-27T17:50:58.802Z,14.46
2019-02-27T17:54:02.634Z,14.40
2019-02-27T17:56:37.051Z,14.30
2019-02-27T17:59:05.241Z,14.11
2019-02-27T18:01:33.837Z,14.03
2019-02-27T18:04:00.904Z,13.88
2019-02-27T18:06:28.032Z,13.73
2019-02-27T18:08:58.528Z,13.60
2019-02-27T18:11:25.671Z,13.40
2019-02-27T18:13:52.779Z,13.18
2019-02-27T18:16:24.522Z,12.99
2019-02-27T18:18:52.070Z,13.05
2019-02-27T18:21:19.308Z,12.21
2019-02-27T18:23:47.971Z,11.86
2019-02-27T18:26:16.480Z,11.61
2019-02-27T18:28:43.765Z,11.69
2019-02-27T18:31:10.851Z,11.80
2019-02-27T18:33:38.354Z,11.98
2019-02-27T18:36:05.849Z,12.09
2019-02-27T18:38:33.295Z,12.15
2019-02-27T18:41:00.376Z,12.09
2019-02-27T18:43:30.097Z,11.99
2019-02-27T18:45:56.591Z,11.82
2019-02-27T18:48:24.223Z,11.80
2019-02-27T18:50:51.468Z,11.73
2019-02-27T18:53:18.725Z,11.62
2019-02-27T18:55:46.095Z,11.39
2019-02-27T18:58:14.343Z,11.13
2019-02-27T19:00:44.423Z,10.85
2019-02-27T19:03:12.605Z,10.63
2019-02-27T19:05:42.094Z,10.54
2019-02-27T19:08:09.465Z,10.27
2019-02-27T19:10:41.394Z,10.21
2019-02-27T19:13:06.231Z,10.20
2019-02-27T19:15:33.409Z,10.28
2019-02-27T19:18:00.494Z,10.27
2019-02-27T19:20:28.565Z,10.19
2019-02-27T19:22:55.728Z,10.01
2019-02-27T19:25:22.927Z,10.03
2019-02-27T19:27:50.776Z,10.04
2019-02-27T19:30:18.147Z,10.04
2019-02-27T19:32:46.299Z,9.99
2019-02-27T19:35:14.499Z,10.07
2019-02-27T19:37:41.986Z,10.12
2019-02-27T19:40:11.662Z,10.02
2019-02-27T19:42:50.354Z,9.95
2019-02-27T19:45:17.619Z,9.86
2019-02-27T19:47:44.929Z,9.70
2019-02-27T19:50:12.211Z,9.59
2019-02-27T19:52:39.299Z,9.50
2019-02-27T19:55:08.558Z,9.59
2019-02-27T19:57:35.657Z,9.51
2019-02-27T20:00:03.248Z,9.44
2019-02-27T20:02:34.259Z,9.21
2019-02-27T20:05:10.349Z,9.17
2019-02-27T20:07:38.456Z,9.12
2019-02-27T20:10:06.858Z,9.05
2019-02-27T20:12:35.768Z,8.94
2019-02-27T20:15:03.557Z,8.97
2019-02-27T20:17:33.108Z,8.94
2019-02-27T20:20:00.536Z,8.90
2019-02-27T20:22:30.138Z,8.79
2019-02-27T20:24:57.285Z,8.81
2019-02-27T20:27:25.940Z,8.99
2019-02-27T20:29:53.611Z,9.13
2019-02-27T20:32:20.813Z,8.99
2019-02-27T20:34:48.316Z,8.82
2019-02-27T20:37:15.706Z,8.60
2019-02-27T20:39:43.289Z,8.85
2019-02-27T20:42:16.859Z,8.90
2019-02-27T20:44:44.253Z,8.71
2019-02-27T20:47:11.523Z,8.64
2019-02-27T20:49:40.111Z,8.58
2019-02-27T20:52:07.620Z,8.39
2019-02-27T20:54:35.919Z,8.16
2019-02-27T20:57:03.013Z,8.02
2019-02-27T20:59:30.563Z,7.82
2019-02-27T21:01:59.043Z,7.85
2019-02-27T21:04:26.087Z,7.77
2019-02-27T21:06:53.214Z,7.63
2019-02-27T21:09:21.329Z,7.51
2019-02-27T21:11:48.589Z,7.51
2019-02-27T21:14:15.670Z,7.40
2019-02-27T21:16:45.637Z,7.32
2019-02-27T21:19:12.690Z,7.28
2019-02-27T21:21:39.790Z,6.97
2019-02-27T21:24:06.870Z,6.71
2019-02-27T21:26:33.996Z,6.38
2019-02-27T21:29:02.141Z,6.28
2019-02-27T21:31:29.902Z,6.49
2019-02-27T21:33:57.052Z,6.52
2019-02-27T21:36:24.195Z,6.67
2019-02-27T21:38:51.519Z,6.88
2019-02-27T21:41:18.909Z,6.94
2019-02-27T21:43:46.189Z,7.00
2019-02-27T21:46:13.261Z,7.10
2019-02-27T21:48:40.872Z,7.25
2019-02-27T21:51:07.955Z,7.40
2019-02-27T21:53:36.207Z,7.49
2019-02-27T21:56:03.315Z,7.34
2019-02-27T21:58:32.865Z,7.17
2019-02-27T22:00:59.682Z,7.24
2019-02-27T22:03:26.810Z,7.20
2019-02-27T22:05:54.648Z,6.89
2019-02-27T22:08:22.165Z,6.75
2019-02-27T22:10:53.285Z,6.60
2019-02-27T22:13:28.598Z,6.48
2019-02-27T22:15:47.481Z,6.39
2019-02-27T22:18:14.780Z,6.27
2019-02-27T22:20:41.865Z,6.35
2019-02-27T22:23:12.702Z,6.32
2019-02-27T22:25:39.914Z,6.44
2019-02-27T22:28:06.994Z,6.50
2019-02-27T22:30:34.068Z,6.55
2019-02-27T22:33:01.213Z,6.39
2019-02-27T22:35:30.602Z,6.28
2019-02-27T22:37:58.207Z,6.13
2019-02-27T22:40:25.270Z,5.78
2019-02-27T22:42:52.344Z,5.66
2019-02-27T22:45:20.238Z,5.70
2019-02-27T22:47:49.379Z,5.37
2019-02-27T22:50:16.519Z,5.21
2019-02-27T22:52:44.004Z,5.21
2019-02-27T22:55:11.150Z,5.27
2019-02-27T22:57:38.300Z,5.36
2019-02-27T23:00:39.367Z,5.32
2019-02-27T23:03:08.352Z,5.39
2019-02-27T23:05:38.179Z,4.64
2019-02-27T23:08:04.508Z,4.26
2019-02-27T23:10:31.620Z,4.43
2019-02-27T23:12:59.547Z,4.84
2019-02-27T23:15:26.594Z,5.22
2019-02-27T23:17:55.478Z,5.30
2019-02-27T23:20:22.902Z,5.38
2019-02-27T23:22:51.798Z,5.17
2019-02-27T23:25:18.902Z,4.98
2019-02-27T23:27:47.169Z,5.03
2019-02-27T23:30:15.960Z,5.17
2019-02-27T23:32:43.461Z,5.15
2019-02-27T23:35:16.014Z,5.09
2019-02-27T23:37:40.073Z,5.17
2019-02-27T23:40:07.510Z,5.12
2019-02-27T23:42:34.594Z,5.10
2019-02-27T23:45:01.634Z,5.09
2019-02-27T23:47:29.995Z,5.13
2019-02-27T23:49:57.010Z,5.38
2019-02-27T23:52:27.284Z,5.48
2019-02-27T23:54:54.435Z,5.35
2019-02-27T23:57:23.584Z,5.39
2019-02-27T23:59:50.969Z,5.30
